Aérodrome :
LOGIN :

S'inscrire | Disclaimer

   EN    FR    IT 

 










Légende :    VFR   VFR Marginal   IFR   IFR Intensif   IFR Très Intensif
Visi : 
Plafond : 
>= 8 km
>= 3000ft
5 à 8 km
1000 à 3000 ft
1500m à 5 km
500 à 1000 ft
800 à 1500m
200 à 500 ft
< 800m
< 200 ft
Symboles :   Orages  Brouillard  Fortes neiges  Fortes précipitations  Vent > 20 kt
SIGMETs :   Divers  Orages  Givrage  Turbulence  Onde Orograph.  Cendres Volcan.






- Altitude de l'aérodrome : 39 ft


ETNH - Hohn AB

DERNIER METAR :
  • 270503Z 18010KT 4500 -RA BR SCT008 BKN018 05/04 Q1006 GRN

METARs EXPIRÉS :
  • 270420Z 18009KT 6000 -RA FEW010 BKN040 05/03 Q1006 WHT
  • 270320Z 17006KT 6000 FEW085 BKN200 04/03 Q1007 WHT
  • 270220Z 17006KT 6000 FEW035 BKN065 04/03 Q1008 WHT

TAF TAF ETNH
Valide du 27 à 00h jusqu'au 27 à 12h UTC


262320Z 2700/2712 18008KT 7000 NSW SCT005 BKN030
TEMPO 2700/2704 17005KT 9000 NSW SCT010 BKN050
BECMG 2704/2706 19010KT 6000 -RA SCT010 BKN012
TEMPO 2706/2712 21012KT 3000 RADZ SCT005 BKN005 BY ETGL



MET'MAP, la Météo Aéronautique d'un coup d'oeil ! - Copyright ORBIFLY Décembre 2007 - Disclaimer

ORBIFLY MET'MAP TEAM :

Programmation & Développement : Alexandra Zaïnal
Sur une idée originale de : Baudouin d'Aumeries
Assistance à la programmation : Marc-Olivier Méhu
Soutien technique & logistique : Manuel Goepfert

Contact : metmap@orbifly.com




SOURCES & CREDITS :

   NOAA